createdAt,value
2023-01-11T00:00:59.618Z,100274.63
2023-01-11T00:03:26.124Z,100271.34
2023-01-11T00:05:56.108Z,100253.44
2023-01-11T00:08:24.408Z,100239.97
2023-01-11T00:10:51.469Z,100246.50
2023-01-11T00:13:18.456Z,100234.06
2023-01-11T00:15:45.436Z,100232.66
2023-01-11T00:18:12.227Z,100223.88
2023-01-11T00:20:39.986Z,100226.31
2023-01-11T00:23:06.553Z,100224.50
2023-01-11T00:25:33.504Z,100225.69
2023-01-11T00:27:59.962Z,100216.56
2023-01-11T00:30:26.414Z,100218.56
2023-01-11T00:32:57.451Z,100214.50
2023-01-11T00:35:24.701Z,100210.81
2023-01-11T00:37:53.570Z,100202.88
2023-01-11T00:40:20.709Z,100198.97
2023-01-11T00:43:06.115Z,100205.91
2023-01-11T00:45:51.322Z,100195.94
2023-01-11T00:48:17.859Z,100200.81
2023-01-11T00:50:44.315Z,100195.72
2023-01-11T00:53:10.908Z,100189.19
2023-01-11T00:55:37.687Z,100198.56
2023-01-11T00:58:06.839Z,100197.13
2023-01-11T01:00:33.409Z,100204.44
2023-01-11T01:03:00.916Z,100204.66
2023-01-11T01:05:27.412Z,100194.66
2023-01-11T01:07:53.963Z,100189.97
2023-01-11T01:10:20.829Z,100189.78
2023-01-11T01:13:06.270Z,100183.25
2023-01-11T01:15:34.038Z,100188.13
2023-01-11T01:18:00.992Z,100195.47
2023-01-11T01:20:27.882Z,100198.94
2023-01-11T01:22:54.601Z,100200.78
2023-01-11T01:25:21.127Z,100209.75
2023-01-11T01:27:50.033Z,100198.53
2023-01-11T01:30:16.833Z,100204.28
2023-01-11T01:32:43.341Z,100200.97
2023-01-11T01:35:09.988Z,100213.00
2023-01-11T01:37:36.584Z,100209.34
2023-01-11T01:40:03.987Z,100218.09
2023-01-11T01:42:30.577Z,100215.66
2023-01-11T01:45:02.310Z,100221.78
2023-01-11T01:47:40.573Z,100209.75
2023-01-11T01:50:13.326Z,100219.75
2023-01-11T01:52:40.702Z,100220.56
2023-01-11T01:55:12.045Z,100215.88
2023-01-11T01:57:45.037Z,100206.72
2023-01-11T02:00:12.516Z,100210.78
2023-01-11T02:02:40.937Z,100217.13
2023-01-11T02:05:08.905Z,100202.22
2023-01-11T02:07:38.651Z,100203.03
2023-01-11T02:10:12.604Z,100194.28
2023-01-11T02:12:45.365Z,100196.13
2023-01-11T02:15:12.783Z,100184.06
2023-01-11T02:17:39.378Z,100180.59
2023-01-11T02:20:24.175Z,100170.22
2023-01-11T02:23:23.131Z,100160.47
2023-01-11T02:26:14.019Z,100171.25
2023-01-11T02:28:58.475Z,100169.63
2023-01-11T02:31:32.862Z,100152.28
2023-01-11T02:34:28.496Z,100154.53
2023-01-11T02:37:40.519Z,100151.66
2023-01-11T02:40:07.390Z,100146.97
2023-01-11T02:43:06.420Z,100147.41
2023-01-11T02:45:56.005Z,100172.66
2023-01-11T02:48:45.976Z,100176.97
2023-01-11T02:51:19.849Z,100162.50
2023-01-11T02:53:57.996Z,100163.53
2023-01-11T02:56:31.051Z,100172.09
2023-01-11T02:59:00.590Z,100177.38
2023-01-11T03:01:27.107Z,100161.88
2023-01-11T03:03:53.930Z,100164.53
2023-01-11T03:06:31.867Z,100174.53
2023-01-11T03:09:25.044Z,100184.94
2023-01-11T03:12:35.405Z,100184.94
2023-01-11T03:15:26.296Z,100184.94
2023-01-11T03:18:14.561Z,100166.78
2023-01-11T03:20:46.933Z,100169.03
2023-01-11T03:23:41.556Z,100174.34
2023-01-11T03:26:13.817Z,100174.91
2023-01-11T03:28:48.540Z,100184.94
2023-01-11T03:31:32.573Z,100186.34
2023-01-11T03:34:03.683Z,100185.13
2023-01-11T03:36:41.987Z,100184.09
2023-01-11T03:39:26.696Z,100188.78
2023-01-11T03:41:58.391Z,100202.03
2023-01-11T03:44:28.147Z,100211.84
2023-01-11T03:47:02.729Z,100209.38
2023-01-11T03:49:41.773Z,100203.69
2023-01-11T03:52:12.540Z,100206.53
2023-01-11T03:54:40.714Z,100189.59
2023-01-11T03:57:50.545Z,100205.50
2023-01-11T04:00:21.600Z,100196.94
2023-01-11T04:02:49.561Z,100196.94
2023-01-11T04:05:16.106Z,100210.41
2023-01-11T04:07:42.545Z,100209.56
2023-01-11T04:10:09.895Z,100224.69
2023-01-11T04:12:36.350Z,100232.22
2023-01-11T04:15:05.191Z,100239.75
2023-01-11T04:17:32.181Z,100242.63
2023-01-11T04:19:58.668Z,100230.19
2023-01-11T04:22:25.142Z,100234.50
2023-01-11T04:24:51.652Z,100241.19
2023-01-11T04:27:18.076Z,100248.53
2023-01-11T04:29:45.627Z,100242.22
2023-01-11T04:32:12.243Z,100257.72
2023-01-11T04:34:38.737Z,100253.03
2023-01-11T04:37:05.168Z,100262.41
2023-01-11T04:39:31.613Z,100262.81
2023-01-11T04:42:16.746Z,100269.31
2023-01-11T04:44:43.204Z,100277.25
2023-01-11T04:47:09.688Z,100269.50
2023-01-11T04:49:36.149Z,100278.28
2023-01-11T04:52:02.675Z,100274.59
2023-01-11T04:54:29.212Z,100277.84
2023-01-11T04:56:55.655Z,100279.06
2023-01-11T04:59:22.121Z,100282.09
2023-01-11T05:01:48.623Z,100293.94
2023-01-11T05:04:15.299Z,100269.69
2023-01-11T05:06:41.983Z,100284.31
2023-01-11T05:09:14.489Z,100291.63
2023-01-11T05:11:41.045Z,100301.19
2023-01-11T05:14:08.174Z,100302.78
2023-01-11T05:16:34.841Z,100319.69
2023-01-11T05:19:02.125Z,100336.13
2023-01-11T05:21:33.656Z,100331.66
2023-01-11T05:24:02.767Z,100319.00
2023-01-11T05:26:35.359Z,100328.34
2023-01-11T05:29:07.196Z,100339.72
2023-01-11T05:31:35.128Z,100350.72
2023-01-11T05:34:01.659Z,100343.78
2023-01-11T05:36:28.745Z,100358.63
2023-01-11T05:38:56.770Z,100370.81
2023-01-11T05:41:25.806Z,100379.34
2023-01-11T05:44:11.578Z,100371.97
2023-01-11T05:46:39.901Z,100381.88
2023-01-11T05:49:07.636Z,100391.03
2023-01-11T05:51:35.134Z,100393.44
2023-01-11T05:54:03.930Z,100396.66
2023-01-11T05:56:30.930Z,100405.34
2023-01-11T05:58:57.521Z,100401.03
2023-01-11T06:01:25.007Z,100414.00
2023-01-11T06:03:51.785Z,100412.94
2023-01-11T06:06:19.623Z,100416.53
2023-01-11T06:08:46.118Z,100426.28
2023-01-11T06:11:12.585Z,100442.06
2023-01-11T06:13:39.119Z,100441.00
2023-01-11T06:16:14.907Z,100448.06
2023-01-11T06:18:45.371Z,100447.69
2023-01-11T06:21:13.242Z,100443.44
2023-01-11T06:23:43.550Z,100452.91
2023-01-11T06:26:14.056Z,100466.22
2023-01-11T06:28:41.305Z,100462.34
2023-01-11T06:31:08.096Z,100474.91
2023-01-11T06:33:35.158Z,100480.56
2023-01-11T06:36:10.198Z,100477.09
2023-01-11T06:38:37.737Z,100485.84
2023-01-11T06:41:08.349Z,100493.69
2023-01-11T06:43:36.430Z,100496.66
2023-01-11T06:46:03.413Z,100501.94
2023-01-11T06:48:29.979Z,100505.31
2023-01-11T06:50:58.399Z,100507.97
2023-01-11T06:53:28.473Z,100509.31
2023-01-11T06:55:57.817Z,100517.59
2023-01-11T06:58:25.502Z,100520.59
2023-01-11T07:00:53.317Z,100525.88
2023-01-11T07:03:24.441Z,100524.75
2023-01-11T07:05:52.214Z,100528.13
2023-01-11T07:08:19.954Z,100531.78
2023-01-11T07:10:46.854Z,100531.34
2023-01-11T07:13:16.311Z,100539.44
2023-01-11T07:15:48.888Z,100541.25
2023-01-11T07:18:15.655Z,100540.03
2023-01-11T07:20:42.323Z,100541.88
2023-01-11T07:23:09.869Z,100552.63
2023-01-11T07:25:36.846Z,100558.22
2023-01-11T07:28:06.250Z,100560.53
2023-01-11T07:30:44.768Z,100566.97
2023-01-11T07:33:18.621Z,100577.41
2023-01-11T07:35:47.184Z,100576.41
2023-01-11T07:38:13.661Z,100577.06
2023-01-11T07:40:40.152Z,100575.63
2023-01-11T07:43:16.531Z,100581.75
2023-01-11T07:45:47.981Z,100585.97
2023-01-11T07:48:20.700Z,100596.84
2023-01-11T07:50:47.654Z,100608.22
2023-01-11T07:53:14.504Z,100612.84
2023-01-11T07:55:41.291Z,100616.00
2023-01-11T07:58:11.599Z,100636.38
2023-01-11T08:00:38.753Z,100643.59
2023-01-11T08:03:05.526Z,100651.53
2023-01-11T08:05:32.161Z,100648.53
2023-01-11T08:07:58.787Z,100656.97
2023-01-11T08:10:25.343Z,100660.59
2023-01-11T08:13:10.843Z,100662.75
2023-01-11T08:15:37.585Z,100665.94
2023-01-11T08:18:05.937Z,100671.19
2023-01-11T08:20:33.072Z,100674.84
2023-01-11T08:23:07.132Z,100669.03
2023-01-11T08:25:34.136Z,100660.59
2023-01-11T08:28:02.302Z,100664.88
2023-01-11T08:30:29.528Z,100671.06
2023-01-11T08:32:57.491Z,100681.03
2023-01-11T08:35:25.719Z,100683.84
2023-01-11T08:37:52.742Z,100691.41
2023-01-11T08:40:21.052Z,100699.50
2023-01-11T08:42:51.418Z,100709.16
2023-01-11T08:45:18.160Z,100721.19
2023-01-11T08:47:44.744Z,100722.75
2023-01-11T08:50:11.550Z,100724.72
2023-01-11T08:52:38.082Z,100730.56
2023-01-11T08:55:07.830Z,100741.34
2023-01-11T08:57:36.558Z,100752.94
2023-01-11T09:00:05.435Z,100764.34
2023-01-11T09:02:34.772Z,100770.09
2023-01-11T09:05:01.329Z,100792.28
2023-01-11T09:07:27.916Z,100801.06
2023-01-11T09:09:54.454Z,100826.16
2023-01-11T09:12:21.297Z,100832.00
2023-01-11T09:14:47.760Z,100847.91
2023-01-11T09:17:14.303Z,100869.78
2023-01-11T09:19:40.863Z,100890.75
2023-01-11T09:22:07.333Z,100903.63
2023-01-11T09:24:33.806Z,100918.09
2023-01-11T09:27:00.644Z,100938.91
2023-01-11T09:29:27.228Z,100950.47
2023-01-11T09:31:53.796Z,100953.75
2023-01-11T09:34:21.082Z,100968.31
2023-01-11T09:36:48.910Z,100961.75
2023-01-11T09:39:18.791Z,100975.25
2023-01-11T09:42:00.812Z,100988.66
2023-01-11T09:44:29.760Z,101000.22
2023-01-11T09:47:15.394Z,101028.19
2023-01-11T09:49:47.151Z,101032.28
2023-01-11T09:52:39.654Z,101047.63
2023-01-11T09:55:11.393Z,101039.66
2023-01-11T09:58:04.035Z,101051.59
2023-01-11T10:01:01.203Z,101057.28
2023-01-11T10:03:53.112Z,101052.88
2023-01-11T10:06:44.232Z,101061.44
2023-01-11T10:18:37.724Z,101092.94
2023-01-11T10:18:50.078Z,101096.22
2023-01-11T10:21:21.325Z,101102.63
2023-01-11T10:24:02.772Z,101106.31
2023-01-11T10:26:39.690Z,101103.81
2023-01-11T10:29:21.019Z,101103.44
2023-01-11T10:32:22.244Z,101101.53
2023-01-11T10:35:13.615Z,101094.31
2023-01-11T10:37:48.142Z,101094.22
2023-01-11T10:40:31.149Z,101111.38
2023-01-11T10:43:13.165Z,101117.22
2023-01-11T10:45:46.862Z,101117.16
2023-01-11T10:48:34.499Z,101119.97
2023-01-11T10:51:12.381Z,101115.94
2023-01-11T10:53:50.595Z,101122.63
2023-01-11T10:56:22.954Z,101122.63
2023-01-11T10:59:17.279Z,101121.81
2023-01-11T11:01:57.276Z,101128.44
2023-01-11T11:04:32.729Z,101126.19
2023-01-11T11:07:18.403Z,101132.09
2023-01-11T11:09:57.463Z,101137.69
2023-01-11T11:12:29.637Z,101150.38
2023-01-11T11:15:21.759Z,101136.44
2023-01-11T11:17:50.903Z,101149.47
2023-01-11T11:20:18.987Z,101165.66
2023-01-11T11:22:45.689Z,101170.19
2023-01-11T11:25:33.988Z,101195.31
2023-01-11T11:28:27.121Z,101194.31
2023-01-11T11:30:56.896Z,101204.13
2023-01-11T11:33:33.719Z,101202.75
2023-01-11T11:36:04.981Z,101203.47
2023-01-11T11:38:35.221Z,101207.19
2023-01-11T11:41:04.673Z,101208.50
2023-01-11T11:43:33.986Z,101203.75
2023-01-11T11:46:03.455Z,101212.44
2023-01-11T11:48:32.847Z,101199.28
2023-01-11T11:51:03.182Z,101196.69
2023-01-11T11:53:54.790Z,101192.56
2023-01-11T11:56:28.442Z,101205.84
2023-01-11T11:58:57.070Z,101212.41
2023-01-11T12:01:29.757Z,101203.47
2023-01-11T12:04:00.984Z,101209.88
2023-01-11T12:06:29.089Z,101216.13
2023-01-11T12:08:58.502Z,101215.06
2023-01-11T12:11:32.769Z,101217.72
2023-01-11T12:14:04.007Z,101212.22
2023-01-11T12:16:35.510Z,101205.16
2023-01-11T12:19:02.300Z,101219.09
2023-01-11T12:21:30.329Z,101219.69
2023-01-11T12:24:19.324Z,101220.75
2023-01-11T12:27:06.563Z,101224.78
2023-01-11T12:29:59.270Z,101224.41
2023-01-11T12:32:50.456Z,101235.47
2023-01-11T12:35:27.788Z,101222.00
2023-01-11T12:38:02.408Z,101223.47
2023-01-11T12:41:08.566Z,101220.81
2023-01-11T12:44:02.180Z,101225.19
2023-01-11T12:47:04.792Z,101238.91
2023-01-11T12:49:45.957Z,101233.75
2023-01-11T12:52:41.666Z,101238.25
2023-01-11T12:55:35.905Z,101240.78
2023-01-11T12:58:11.548Z,101241.91
2023-01-11T13:00:58.084Z,101229.50
2023-01-11T13:03:43.142Z,101238.25
2023-01-11T13:06:30.564Z,101228.47
2023-01-11T13:09:16.781Z,101230.16
2023-01-11T13:12:13.439Z,101227.00
2023-01-11T13:15:03.179Z,101229.81
2023-01-11T13:17:40.769Z,101224.50
2023-01-11T13:20:19.231Z,101211.50
2023-01-11T13:22:53.107Z,101227.16
2023-01-11T13:25:34.125Z,101231.34
2023-01-11T13:28:04.941Z,101222.94
2023-01-11T13:30:32.219Z,101223.22
2023-01-11T13:33:04.634Z,101218.09
2023-01-11T13:35:40.698Z,101218.59
2023-01-11T13:38:27.970Z,101211.00
2023-01-11T13:41:01.401Z,101217.50
2023-01-11T13:43:42.219Z,101212.25
2023-01-11T13:46:17.985Z,101218.78
2023-01-11T13:48:51.626Z,101221.28
2023-01-11T13:51:50.162Z,101212.78
2023-01-11T13:54:43.900Z,101204.03
2023-01-11T13:57:21.985Z,101220.91
2023-01-11T13:59:53.310Z,101209.09
2023-01-11T14:02:42.274Z,101199.03
2023-01-11T14:05:34.995Z,101213.16
2023-01-11T14:08:25.766Z,101213.63
2023-01-11T14:10:54.967Z,101215.81
2023-01-11T14:14:06.456Z,101220.78
2023-01-11T14:17:00.924Z,101213.59
2023-01-11T14:19:33.141Z,101221.88
2023-01-11T14:22:21.961Z,101217.50
2023-01-11T14:25:15.193Z,101207.31
2023-01-11T14:28:15.934Z,101195.63
2023-01-11T14:30:53.670Z,101196.34
2023-01-11T14:33:21.528Z,101199.47
2023-01-11T14:36:13.344Z,101193.25
2023-01-11T14:39:04.603Z,101192.69
2023-01-11T14:41:33.844Z,101192.78
2023-01-11T14:44:15.331Z,101186.28
2023-01-11T14:46:44.529Z,101187.19
2023-01-11T14:49:17.523Z,101175.91
2023-01-11T14:51:43.959Z,101183.22
2023-01-11T14:54:35.870Z,101167.97
2023-01-11T14:57:02.673Z,101176.44
2023-01-11T14:59:29.075Z,101175.69
2023-01-11T15:02:04.902Z,101177.19
2023-01-11T15:04:33.433Z,101162.34
2023-01-11T15:07:01.170Z,101173.28
2023-01-11T15:09:48.875Z,101171.25
2023-01-11T15:12:18.346Z,101168.38
2023-01-11T15:14:54.749Z,101161.91
2023-01-11T15:17:46.270Z,101163.28
2023-01-11T15:20:16.670Z,101152.09
2023-01-11T15:22:44.172Z,101168.19
2023-01-11T15:25:34.890Z,101155.75
2023-01-11T15:28:24.557Z,101166.69
2023-01-11T15:30:52.038Z,101170.22
2023-01-11T15:33:18.768Z,101173.22
2023-01-11T15:35:57.465Z,101161.63
2023-01-11T15:38:31.225Z,101163.97
2023-01-11T15:41:21.520Z,101156.41
2023-01-11T15:44:25.459Z,101158.56
2023-01-11T15:47:08.287Z,101144.00
2023-01-11T15:49:45.119Z,101160.38
2023-01-11T15:52:50.742Z,101168.16
2023-01-11T15:55:49.381Z,101158.28
2023-01-11T15:58:25.043Z,101157.97
2023-01-11T16:01:34.080Z,101164.59
2023-01-11T16:04:03.816Z,101166.88
2023-01-11T16:06:36.214Z,101166.75
2023-01-11T16:09:17.949Z,101169.22
2023-01-11T16:12:16.682Z,101170.50
2023-01-11T16:15:01.280Z,101175.16
2023-01-11T16:17:28.499Z,101172.19
2023-01-11T16:19:56.728Z,101170.88
2023-01-11T16:22:26.736Z,101165.59
2023-01-11T16:24:57.401Z,101160.09
2023-01-11T16:27:26.954Z,101159.47
2023-01-11T16:29:53.528Z,101136.22
2023-01-11T16:32:22.745Z,101162.16
2023-01-11T16:34:52.182Z,101143.53
2023-01-11T16:37:23.992Z,101149.16
2023-01-11T16:40:07.754Z,101144.84
2023-01-11T16:42:39.626Z,101118.63
2023-01-11T16:45:13.576Z,101111.50
2023-01-11T16:47:40.116Z,101122.00
2023-01-11T16:50:28.430Z,101126.16
2023-01-11T16:52:59.956Z,101127.94
2023-01-11T16:55:36.617Z,101116.59
2023-01-11T16:58:18.957Z,101109.47
2023-01-11T17:00:57.164Z,101128.25
2023-01-11T17:03:28.475Z,101116.06
2023-01-11T17:05:58.332Z,101127.91
2023-01-11T17:08:34.821Z,101123.25
2023-01-11T17:11:31.884Z,101128.19
2023-01-11T17:14:20.076Z,101140.06
2023-01-11T17:16:53.669Z,101104.06
2023-01-11T17:19:24.069Z,101123.72
2023-01-11T17:21:53.378Z,101110.19
2023-01-11T17:24:26.188Z,101125.41
2023-01-11T17:27:00.506Z,101134.84
2023-01-11T17:29:37.984Z,101124.16
2023-01-11T17:32:07.735Z,101138.84
2023-01-11T17:34:36.441Z,101119.34
2023-01-11T17:37:10.393Z,101123.09
2023-01-11T17:39:44.880Z,101120.81
2023-01-11T17:42:41.003Z,101117.16
2023-01-11T17:45:27.827Z,101115.34
2023-01-11T17:47:55.143Z,101113.06
2023-01-11T17:50:32.744Z,101102.81
2023-01-11T17:53:14.372Z,101110.91
2023-01-11T17:55:57.945Z,101093.56
2023-01-11T17:58:27.472Z,101086.94
2023-01-11T18:01:07.766Z,101083.31
2023-01-11T18:03:44.655Z,101074.41
2023-01-11T18:06:22.607Z,101073.03
2023-01-11T18:08:52.384Z,101062.63
2023-01-11T18:11:25.849Z,101055.38
2023-01-11T18:13:58.684Z,101063.00
2023-01-11T18:16:26.533Z,101051.28
2023-01-11T18:18:54.437Z,101034.16
2023-01-11T18:21:26.709Z,101032.19
2023-01-11T18:24:11.544Z,101021.19
2023-01-11T18:26:40.812Z,101016.06
2023-01-11T18:29:36.689Z,101002.34
2023-01-11T18:32:04.665Z,101007.63
2023-01-11T18:34:31.984Z,101002.34
2023-01-11T18:37:01.761Z,100988.31
2023-01-11T18:39:28.256Z,100994.59
2023-01-11T18:42:08.289Z,100975.09
2023-01-11T18:44:36.483Z,100996.59
2023-01-11T18:47:13.693Z,100988.84
2023-01-11T18:49:40.233Z,100977.16
2023-01-11T18:52:06.923Z,100960.41
2023-01-11T18:54:33.511Z,100954.88
2023-01-11T18:57:03.000Z,100940.06
2023-01-11T18:59:29.661Z,100924.28
2023-01-11T19:02:17.879Z,100914.22
2023-01-11T19:04:45.294Z,100907.63
2023-01-11T19:07:12.540Z,100883.56
2023-01-11T19:09:41.889Z,100873.03
2023-01-11T19:12:08.740Z,100879.59
2023-01-11T19:14:40.342Z,100838.72
2023-01-11T19:17:09.527Z,100845.53
2023-01-11T19:19:36.575Z,100828.88
2023-01-11T19:22:04.033Z,100817.31
2023-01-11T19:24:31.169Z,100815.03
2023-01-11T19:26:58.942Z,100789.66
2023-01-11T19:29:25.739Z,100786.00
2023-01-11T19:31:53.364Z,100770.19
2023-01-11T19:34:21.931Z,100772.81
2023-01-11T19:36:49.525Z,100756.16
2023-01-11T19:39:16.169Z,100761.63
2023-01-11T19:41:55.028Z,100761.28
2023-01-11T19:44:25.889Z,100774.13
2023-01-11T19:47:09.787Z,100782.50
2023-01-11T19:49:38.079Z,100783.13
2023-01-11T19:52:12.933Z,100767.50
2023-01-11T19:54:42.303Z,100781.31
2023-01-11T19:57:11.200Z,100787.13
2023-01-11T19:59:37.783Z,100787.13
2023-01-11T20:02:05.872Z,100797.88
2023-01-11T20:04:33.501Z,100795.41
2023-01-11T20:07:00.521Z,100778.75
2023-01-11T20:09:27.247Z,100771.03
2023-01-11T20:11:55.509Z,100769.84
2023-01-11T20:14:22.230Z,100771.50
2023-01-11T20:16:48.828Z,100763.75
2023-01-11T20:19:15.476Z,100760.94
2023-01-11T20:21:42.085Z,100746.09
2023-01-11T20:24:12.079Z,100745.78
2023-01-11T20:26:38.911Z,100749.25
2023-01-11T20:29:06.420Z,100743.34
2023-01-11T20:31:37.925Z,100740.50
2023-01-11T20:34:10.293Z,100743.34
2023-01-11T20:36:37.311Z,100737.09
2023-01-11T20:39:05.008Z,100745.00
2023-01-11T20:41:46.973Z,100732.59
2023-01-11T20:44:14.996Z,100741.16
2023-01-11T20:46:42.394Z,100732.38
2023-01-11T20:49:08.932Z,100736.19
2023-01-11T20:51:36.602Z,100744.28
2023-01-11T20:54:04.247Z,100750.09
2023-01-11T20:56:33.079Z,100757.53
2023-01-11T20:59:01.028Z,100764.31
2023-01-11T21:01:28.325Z,100772.59
2023-01-11T21:03:57.607Z,100765.38
2023-01-11T21:06:24.125Z,100775.63
2023-01-11T21:08:54.381Z,100778.78
2023-01-11T21:11:20.908Z,100783.13
2023-01-11T21:13:47.501Z,100788.72
2023-01-11T21:16:15.880Z,100785.44
2023-01-11T21:18:44.009Z,100783.00
2023-01-11T21:21:19.579Z,100785.56
2023-01-11T21:23:47.006Z,100778.66
2023-01-11T21:26:15.534Z,100783.41
2023-01-11T21:28:43.049Z,100769.59
2023-01-11T21:31:11.882Z,100768.41
2023-01-11T21:33:39.299Z,100754.84
2023-01-11T21:36:09.280Z,100766.72
2023-01-11T21:38:36.124Z,100754.00
2023-01-11T21:41:07.724Z,100763.25
2023-01-11T21:43:34.719Z,100772.00
2023-01-11T21:46:02.004Z,100760.72
2023-01-11T21:48:28.882Z,100761.84
2023-01-11T21:50:55.886Z,100749.44
2023-01-11T21:53:22.418Z,100756.94
2023-01-11T21:55:50.161Z,100768.59
2023-01-11T21:58:17.456Z,100772.50
2023-01-11T22:00:46.507Z,100773.28
2023-01-11T22:03:13.040Z,100775.13
2023-01-11T22:05:39.534Z,100791.88
2023-01-11T22:08:06.027Z,100799.25
2023-01-11T22:10:33.370Z,100807.19
2023-01-11T22:13:00.371Z,100811.13
2023-01-11T22:15:26.893Z,100804.84
2023-01-11T22:17:53.693Z,100815.56
2023-01-11T22:20:20.358Z,100818.59
2023-01-11T22:22:46.896Z,100829.97
2023-01-11T22:25:13.440Z,100838.88
2023-01-11T22:27:39.955Z,100836.72
2023-01-11T22:30:07.127Z,100852.00
2023-01-11T22:32:33.633Z,100859.31
2023-01-11T22:35:00.132Z,100862.13
2023-01-11T22:37:26.673Z,100869.03
2023-01-11T22:39:53.154Z,100868.22
2023-01-11T22:42:19.736Z,100872.97
2023-01-11T22:44:46.225Z,100870.44
2023-01-11T22:47:12.764Z,100867.44
2023-01-11T22:49:39.295Z,100881.75
2023-01-11T22:52:06.672Z,100887.84
2023-01-11T22:54:33.227Z,100890.50
2023-01-11T22:56:59.812Z,100889.66
2023-01-11T22:59:26.327Z,100900.41
2023-01-11T23:01:52.904Z,100903.72
2023-01-11T23:04:19.398Z,100893.44
2023-01-11T23:06:46.028Z,100899.19
2023-01-11T23:09:16.268Z,100897.66
2023-01-11T23:12:02.109Z,100894.00
2023-01-11T23:14:30.345Z,100887.09
2023-01-11T23:17:10.625Z,100892.84
2023-01-11T23:19:39.772Z,100877.16
2023-01-11T23:22:07.861Z,100885.53
2023-01-11T23:24:35.605Z,100885.91
2023-01-11T23:27:02.125Z,100870.13
2023-01-11T23:29:28.790Z,100872.47
2023-01-11T23:31:55.460Z,100853.50
2023-01-11T23:34:21.996Z,100851.41
2023-01-11T23:36:48.530Z,100835.47
2023-01-11T23:39:18.604Z,100824.25
2023-01-11T23:42:03.519Z,100820.97
2023-01-11T23:44:30.233Z,100812.06
2023-01-11T23:47:15.757Z,100800.84
2023-01-11T23:49:43.725Z,100781.25
2023-01-11T23:52:10.618Z,100761.31
2023-01-11T23:54:37.168Z,100751.91
2023-01-11T23:57:04.399Z,100736.16
2023-01-11T23:59:31.608Z,100718.06
